sensor_id;sensor_type;location;lat;lon;timestamp;pressure;altitude;pressure_sealevel;temperature;humidity
25350;BME280;13302;48.796;11.978;2022-09-27T00:00:42;95260.59;;;14.18;35.11
25350;BME280;13302;48.796;11.978;2022-09-27T00:03:30;95258.63;;;14.18;34.91
25350;BME280;13302;48.796;11.978;2022-09-27T00:06:25;95252.66;;;14.16;34.96
25350;BME280;13302;48.796;11.978;2022-09-27T00:09:12;95253.06;;;14.18;35.04
25350;BME280;13302;48.796;11.978;2022-09-27T00:12:00;95253.84;;;14.19;35.06
25350;BME280;13302;48.796;11.978;2022-09-27T00:14:47;95247.06;;;14.20;34.90
25350;BME280;13302;48.796;11.978;2022-09-27T00:17:35;95233.56;;;14.22;34.94
25350;BME280;13302;48.796;11.978;2022-09-27T00:20:22;95225.56;;;14.24;34.92
25350;BME280;13302;48.796;11.978;2022-09-27T00:23:09;95228.75;;;14.26;34.61
25350;BME280;13302;48.796;11.978;2022-09-27T00:25:57;95219.22;;;14.27;34.72
25350;BME280;13302;48.796;11.978;2022-09-27T00:28:45;95217.22;;;14.28;35.18
25350;BME280;13302;48.796;11.978;2022-09-27T00:31:32;95220.38;;;14.30;34.83
25350;BME280;13302;48.796;11.978;2022-09-27T00:34:22;95220.41;;;14.26;34.90
25350;BME280;13302;48.796;11.978;2022-09-27T00:37:10;95219.56;;;14.29;34.90
25350;BME280;13302;48.796;11.978;2022-09-27T00:39:57;95216.38;;;14.31;34.94
25350;BME280;13302;48.796;11.978;2022-09-27T00:42:44;95205.28;;;14.31;35.03
25350;BME280;13302;48.796;11.978;2022-09-27T00:45:31;95204.47;;;14.30;35.42
25350;BME280;13302;48.796;11.978;2022-09-27T00:48:22;95198.13;;;14.30;35.61
25350;BME280;13302;48.796;11.978;2022-09-27T00:51:13;95200.06;;;14.33;35.43
25350;BME280;13302;48.796;11.978;2022-09-27T00:54:01;95188.16;;;14.32;35.56
25350;BME280;13302;48.796;11.978;2022-09-27T00:56:48;95186.16;;;14.33;35.79
25350;BME280;13302;48.796;11.978;2022-09-27T00:59:44;95175.53;;;14.28;35.75
25350;BME280;13302;48.796;11.978;2022-09-27T01:02:32;95177.94;;;14.25;35.98
25350;BME280;13302;48.796;11.978;2022-09-27T01:05:25;95182.28;;;14.27;35.94
25350;BME280;13302;48.796;11.978;2022-09-27T01:08:13;95179.50;;;14.27;35.78
25350;BME280;13302;48.796;11.978;2022-09-27T01:11:10;95177.94;;;14.25;36.04
25350;BME280;13302;48.796;11.978;2022-09-27T01:14:40;95178.75;;;14.22;35.91
25350;BME280;13302;48.796;11.978;2022-09-27T01:27:53;95168.94;;;14.14;36.62
25350;BME280;13302;48.796;11.978;2022-09-27T01:30:50;95176.09;;;14.15;36.89
25350;BME280;13302;48.796;11.978;2022-09-27T01:39:39;95165.78;;;14.09;36.91
25350;BME280;13302;48.796;11.978;2022-09-27T01:43:09;95162.66;;;14.07;36.85
25350;BME280;13302;48.796;11.978;2022-09-27T01:46:16;95149.97;;;14.06;37.34
25350;BME280;13302;48.796;11.978;2022-09-27T01:49:41;95147.66;;;13.97;37.49
25350;BME280;13302;48.796;11.978;2022-09-27T01:52:38;95151.59;;;14.00;37.49
25350;BME280;13302;48.796;11.978;2022-09-27T01:55:31;95147.28;;;13.99;37.46
25350;BME280;13302;48.796;11.978;2022-09-27T02:01:47;95133.78;;;13.97;37.34
25350;BME280;13302;48.796;11.978;2022-09-27T02:04:39;95127.06;;;13.95;37.55
25350;BME280;13302;48.796;11.978;2022-09-27T02:10:44;95129.88;;;13.91;37.54
25350;BME280;13302;48.796;11.978;2022-09-27T02:13:53;95118.00;;;13.87;37.74
25350;BME280;13302;48.796;11.978;2022-09-27T02:17:28;95120.78;;;13.87;37.86
25350;BME280;13302;48.796;11.978;2022-09-27T02:23:35;95117.25;;;13.87;37.96
25350;BME280;13302;48.796;11.978;2022-09-27T02:26:35;95111.72;;;13.83;38.07
25350;BME280;13302;48.796;11.978;2022-09-27T02:29:31;95111.31;;;13.85;38.33
25350;BME280;13302;48.796;11.978;2022-09-27T02:32:20;95113.28;;;13.84;38.15
25350;BME280;13302;48.796;11.978;2022-09-27T02:35:12;95112.09;;;13.85;38.46
25350;BME280;13302;48.796;11.978;2022-09-27T02:38:02;95118.06;;;13.84;38.41
25350;BME280;13302;48.796;11.978;2022-09-27T02:40:50;95126.81;;;13.82;38.85
25350;BME280;13302;48.796;11.978;2022-09-27T02:43:37;95120.88;;;13.80;38.90
25350;BME280;13302;48.796;11.978;2022-09-27T02:59:57;95090.78;;;13.75;38.87
25350;BME280;13302;48.796;11.978;2022-09-27T03:03:06;95083.69;;;13.74;39.02
25350;BME280;13302;48.796;11.978;2022-09-27T03:06:10;95073.81;;;13.69;38.76
25350;BME280;13302;48.796;11.978;2022-09-27T03:08:57;95071.78;;;13.73;39.05
25350;BME280;13302;48.796;11.978;2022-09-27T03:11:44;95068.22;;;13.73;38.62
25350;BME280;13302;48.796;11.978;2022-09-27T03:14:31;95063.84;;;13.72;39.01
25350;BME280;13302;48.796;11.978;2022-09-27T03:17:33;95066.66;;;13.68;39.10
25350;BME280;13302;48.796;11.978;2022-09-27T03:20:20;95069.03;;;13.70;39.01
25350;BME280;13302;48.796;11.978;2022-09-27T03:23:17;95063.09;;;13.68;38.61
25350;BME280;13302;48.796;11.978;2022-09-27T03:26:04;95064.28;;;13.67;38.93
25350;BME280;13302;48.796;11.978;2022-09-27T03:28:57;95065.53;;;13.66;38.84
25350;BME280;13302;48.796;11.978;2022-09-27T03:31:45;95065.22;;;13.57;39.15
25350;BME280;13302;48.796;11.978;2022-09-27T03:35:01;95065.59;;;13.59;39.21
25350;BME280;13302;48.796;11.978;2022-09-27T03:37:48;95060.81;;;13.59;39.09
25350;BME280;13302;48.796;11.978;2022-09-27T03:40:35;95058.44;;;13.61;39.02
25350;BME280;13302;48.796;11.978;2022-09-27T03:43:24;95058.00;;;13.63;38.94
25350;BME280;13302;48.796;11.978;2022-09-27T03:46:16;95048.13;;;13.62;39.28
25350;BME280;13302;48.796;11.978;2022-09-27T03:49:03;95043.81;;;13.57;39.40
25350;BME280;13302;48.796;11.978;2022-09-27T03:51:50;95041.38;;;13.59;39.28
25350;BME280;13302;48.796;11.978;2022-09-27T03:54:37;95042.56;;;13.58;39.44
25350;BME280;13302;48.796;11.978;2022-09-27T03:57:25;95038.22;;;13.61;39.24
25350;BME280;13302;48.796;11.978;2022-09-27T04:00:12;95040.97;;;13.61;39.49
25350;BME280;13302;48.796;11.978;2022-09-27T04:02:59;95035.47;;;13.57;39.33
25350;BME280;13302;48.796;11.978;2022-09-27T04:05:46;95032.25;;;13.59;39.56
25350;BME280;13302;48.796;11.978;2022-09-27T04:08:38;95042.56;;;13.58;39.32
25350;BME280;13302;48.796;11.978;2022-09-27T04:11:25;95043.38;;;13.59;39.53
25350;BME280;13302;48.796;11.978;2022-09-27T04:14:13;95043.81;;;13.57;39.38
25350;BME280;13302;48.796;11.978;2022-09-27T04:17:20;95034.69;;;13.57;39.38
25350;BME280;13302;48.796;11.978;2022-09-27T04:20:33;95031.97;;;13.53;39.41
25350;BME280;13302;48.796;11.978;2022-09-27T04:23:26;95033.94;;;13.53;39.72
25350;BME280;13302;48.796;11.978;2022-09-27T04:26:16;95031.53;;;13.55;39.55
25350;BME280;13302;48.796;11.978;2022-09-27T04:29:16;95031.53;;;13.55;39.52
25350;BME280;13302;48.796;11.978;2022-09-27T04:32:08;95023.56;;;13.57;39.63
25350;BME280;13302;48.796;11.978;2022-09-27T04:35:15;95029.09;;;13.60;39.43
25350;BME280;13302;48.796;11.978;2022-09-27T04:38:21;95028.69;;;13.58;39.44
25350;BME280;13302;48.796;11.978;2022-09-27T04:41:09;95026.31;;;13.60;39.75
25350;BME280;13302;48.796;11.978;2022-09-27T04:43:58;95033.44;;;13.61;39.89
25350;BME280;13302;48.796;11.978;2022-09-27T04:46:46;95025.91;;;13.62;39.83
25350;BME280;13302;48.796;11.978;2022-09-27T04:49:34;95027.88;;;13.61;39.75
25350;BME280;13302;48.796;11.978;2022-09-27T04:52:21;95032.25;;;13.59;39.83
25350;BME280;13302;48.796;11.978;2022-09-27T04:55:09;95039.00;;;13.61;39.51
25350;BME280;13302;48.796;11.978;2022-09-27T04:57:56;95029.50;;;13.59;39.90
25350;BME280;13302;48.796;11.978;2022-09-27T05:00:46;95039.00;;;13.61;40.07
25350;BME280;13302;48.796;11.978;2022-09-27T05:03:55;95035.44;;;13.61;39.92
25350;BME280;13302;48.796;11.978;2022-09-27T05:06:44;95047.31;;;13.61;39.68
25350;BME280;13302;48.796;11.978;2022-09-27T05:09:43;95051.28;;;13.60;40.01
25350;BME280;13302;48.796;11.978;2022-09-27T05:12:31;95055.25;;;13.59;39.86
25350;BME280;13302;48.796;11.978;2022-09-27T05:15:20;95060.81;;;13.59;39.72
25350;BME280;13302;48.796;11.978;2022-09-27T05:18:33;95056.09;;;13.56;40.10
25350;BME280;13302;48.796;11.978;2022-09-27T05:21:38;95053.31;;;13.56;40.07
25350;BME280;13302;48.796;11.978;2022-09-27T05:24:26;95050.91;;;13.58;39.82
25350;BME280;13302;48.796;11.978;2022-09-27T05:27:18;95055.69;;;13.58;39.84
25350;BME280;13302;48.796;11.978;2022-09-27T05:30:06;95044.22;;;13.56;39.89
25350;BME280;13302;48.796;11.978;2022-09-27T05:33:01;95054.47;;;13.59;40.12
25350;BME280;13302;48.796;11.978;2022-09-27T05:36:07;95047.38;;;13.58;40.12
25350;BME280;13302;48.796;11.978;2022-09-27T05:38:54;95053.28;;;13.60;40.06
25350;BME280;13302;48.796;11.978;2022-09-27T05:41:44;95056.44;;;13.62;39.82
25350;BME280;13302;48.796;11.978;2022-09-27T05:44:32;95059.22;;;13.62;40.18
25350;BME280;13302;48.796;11.978;2022-09-27T05:47:20;95071.09;;;13.62;40.21
25350;BME280;13302;48.796;11.978;2022-09-27T05:50:07;95067.16;;;13.60;40.10
25350;BME280;13302;48.796;11.978;2022-09-27T05:52:55;95071.94;;;13.59;40.12
25350;BME280;13302;48.796;11.978;2022-09-27T05:55:43;95073.91;;;13.59;40.06
25350;BME280;13302;48.796;11.978;2022-09-27T05:58:32;95089.41;;;13.56;40.34
25350;BME280;13302;48.796;11.978;2022-09-27T06:01:31;95082.66;;;13.57;40.33
25350;BME280;13302;48.796;11.978;2022-09-27T06:04:36;95083.47;;;13.54;39.91
25350;BME280;13302;48.796;11.978;2022-09-27T06:07:58;95093.06;;;13.50;40.17
25350;BME280;13302;48.796;11.978;2022-09-27T06:10:59;95096.59;;;13.54;39.90
25350;BME280;13302;48.796;11.978;2022-09-27T06:13:47;95107.69;;;13.54;39.75
25350;BME280;13302;48.796;11.978;2022-09-27T06:16:34;95120.00;;;13.53;40.05
25350;BME280;13302;48.796;11.978;2022-09-27T06:19:22;95109.75;;;13.46;40.09
25350;BME280;13302;48.796;11.978;2022-09-27T06:22:09;95123.28;;;13.41;40.11
25350;BME280;13302;48.796;11.978;2022-09-27T06:25:03;95128.41;;;13.42;40.03
25350;BME280;13302;48.796;11.978;2022-09-27T06:27:55;95131.19;;;13.42;39.98
25350;BME280;13302;48.796;11.978;2022-09-27T06:30:47;95135.94;;;13.45;40.01
25350;BME280;13302;48.796;11.978;2022-09-27T06:34:04;95136.31;;;13.47;39.79
25350;BME280;13302;48.796;11.978;2022-09-27T06:36:51;95137.88;;;13.48;39.87
25350;BME280;13302;48.796;11.978;2022-09-27T06:39:39;95136.72;;;13.46;39.82
25350;BME280;13302;48.796;11.978;2022-09-27T06:43:01;95146.63;;;13.47;39.70
25350;BME280;13302;48.796;11.978;2022-09-27T06:46:07;95152.13;;;13.50;39.85
25350;BME280;13302;48.796;11.978;2022-09-27T06:49:27;95150.94;;;13.51;39.68
25350;BME280;13302;48.796;11.978;2022-09-27T06:52:16;95166.00;;;13.50;39.54
25350;BME280;13302;48.796;11.978;2022-09-27T06:55:03;95161.25;;;13.51;39.69
25350;BME280;13302;48.796;11.978;2022-09-27T06:57:53;95165.59;;;13.52;39.60
25350;BME280;13302;48.796;11.978;2022-09-27T07:01:06;95171.56;;;13.50;39.67
25350;BME280;13302;48.796;11.978;2022-09-27T07:04:22;95167.19;;;13.53;39.66
25350;BME280;13302;48.796;11.978;2022-09-27T07:07:29;95168.78;;;13.54;39.72
25350;BME280;13302;48.796;11.978;2022-09-27T07:10:17;95171.91;;;13.56;39.72
25350;BME280;13302;48.796;11.978;2022-09-27T07:13:06;95168.78;;;13.54;39.41
25350;BME280;13302;48.796;11.978;2022-09-27T07:15:54;95165.53;;;13.59;39.70
25350;BME280;13302;48.796;11.978;2022-09-27T07:18:41;95165.94;;;13.61;39.52
25350;BME280;13302;48.796;11.978;2022-09-27T07:21:28;95175.41;;;13.63;39.57
25350;BME280;13302;48.796;11.978;2022-09-27T07:24:15;95175.84;;;13.62;39.14
25350;BME280;13302;48.796;11.978;2022-09-27T07:27:02;95175.09;;;13.58;39.04
25350;BME280;13302;48.796;11.978;2022-09-27T07:29:49;95179.38;;;13.66;38.97
25350;BME280;13302;48.796;11.978;2022-09-27T07:32:37;95184.09;;;13.69;38.98
25350;BME280;13302;48.796;11.978;2022-09-27T07:35:27;95192.06;;;13.63;39.10
25350;BME280;13302;48.796;11.978;2022-09-27T07:38:14;95189.25;;;13.70;39.00
25350;BME280;13302;48.796;11.978;2022-09-27T07:41:07;95200.72;;;13.72;38.77
25350;BME280;13302;48.796;11.978;2022-09-27T07:43:54;95196.75;;;13.73;38.69
25350;BME280;13302;48.796;11.978;2022-09-27T07:46:43;95192.34;;;13.76;38.98
25350;BME280;13302;48.796;11.978;2022-09-27T07:49:40;95199.47;;;13.77;38.51
25350;BME280;13302;48.796;11.978;2022-09-27T07:52:53;95209.78;;;13.76;38.42
25350;BME280;13302;48.796;11.978;2022-09-27T07:55:52;95207.06;;;13.73;38.37
25350;BME280;13302;48.796;11.978;2022-09-27T07:58:43;95207.81;;;13.77;38.42
25350;BME280;13302;48.796;11.978;2022-09-27T08:01:30;95209.41;;;13.78;38.50
25350;BME280;13302;48.796;11.978;2022-09-27T08:04:17;95213.81;;;13.72;38.57
25350;BME280;13302;48.796;11.978;2022-09-27T08:07:05;95224.09;;;13.75;38.50
25350;BME280;13302;48.796;11.978;2022-09-27T08:09:52;95221.75;;;13.73;38.20
25350;BME280;13302;48.796;11.978;2022-09-27T08:12:40;95215.78;;;13.71;38.05
25350;BME280;13302;48.796;11.978;2022-09-27T08:15:28;95217.75;;;13.74;38.01
25350;BME280;13302;48.796;11.978;2022-09-27T08:18:15;95218.56;;;13.71;38.37
25350;BME280;13302;48.796;11.978;2022-09-27T08:21:12;95218.97;;;13.73;38.36
25350;BME280;13302;48.796;11.978;2022-09-27T08:24:22;95224.19;;;13.64;38.30
25350;BME280;13302;48.796;11.978;2022-09-27T08:27:27;95226.16;;;13.67;38.26
25350;BME280;13302;48.796;11.978;2022-09-27T08:30:18;95229.34;;;13.66;38.01
25350;BME280;13302;48.796;11.978;2022-09-27T08:33:05;95232.09;;;13.69;38.40
25350;BME280;13302;48.796;11.978;2022-09-27T08:35:52;95239.22;;;13.67;38.29
25350;BME280;13302;48.796;11.978;2022-09-27T08:38:39;95241.63;;;13.68;38.23
25350;BME280;13302;48.796;11.978;2022-09-27T08:47:44;95245.53;;;13.71;38.14
25350;BME280;13302;48.796;11.978;2022-09-27T08:50:34;95255.09;;;13.70;38.21
25350;BME280;13302;48.796;11.978;2022-09-27T08:53:33;95252.31;;;13.70;38.19
25350;BME280;13302;48.796;11.978;2022-09-27T08:56:24;95255.84;;;13.74;38.25
25350;BME280;13302;48.796;11.978;2022-09-27T08:59:15;95254.63;;;13.75;38.12
25350;BME280;13302;48.796;11.978;2022-09-27T09:02:19;95268.16;;;13.73;38.25
25350;BME280;13302;48.796;11.978;2022-09-27T09:05:19;95261.78;;;13.76;38.18
25350;BME280;13302;48.796;11.978;2022-09-27T09:08:42;95260.19;;;13.78;37.66
25350;BME280;13302;48.796;11.978;2022-09-27T09:11:40;95268.09;;;13.80;37.58
25350;BME280;13302;48.796;11.978;2022-09-27T09:21:11;95287.91;;;13.82;37.75
25350;BME280;13302;48.796;11.978;2022-09-27T09:36:22;95283.88;;;13.90;37.98
25350;BME280;13302;48.796;11.978;2022-09-27T09:39:16;95279.44;;;13.96;37.91
25350;BME280;13302;48.796;11.978;2022-09-27T09:42:30;95284.16;;;13.99;37.43
25350;BME280;13302;48.796;11.978;2022-09-27T09:45:30;95285.75;;;14.00;37.41
25350;BME280;13302;48.796;11.978;2022-09-27T09:51:45;95287.72;;;14.03;37.47
25350;BME280;13302;48.796;11.978;2022-09-27T09:57:31;95282.94;;;14.04;37.61
25350;BME280;13302;48.796;11.978;2022-09-27T10:00:19;95278.56;;;14.06;37.33
25350;BME280;13302;48.796;11.978;2022-09-27T10:03:10;95275.75;;;14.10;37.41
25350;BME280;13302;48.796;11.978;2022-09-27T10:05:57;95273.34;;;14.12;37.12
25350;BME280;13302;48.796;11.978;2022-09-27T10:08:44;95276.88;;;14.16;37.18
25350;BME280;13302;48.796;11.978;2022-09-27T10:11:56;95266.16;;;14.18;36.78
25350;BME280;13302;48.796;11.978;2022-09-27T10:14:49;95268.53;;;14.19;36.16
25350;BME280;13302;48.796;11.978;2022-09-27T10:17:40;95276.03;;;14.22;36.26
25350;BME280;13302;48.796;11.978;2022-09-27T10:20:44;95274.06;;;14.23;36.02
25350;BME280;13302;48.796;11.978;2022-09-27T10:23:32;95262.50;;;14.24;36.11
25350;BME280;13302;48.796;11.978;2022-09-27T10:26:47;95274.84;;;14.23;35.97
25350;BME280;13302;48.796;11.978;2022-09-27T10:29:36;95277.63;;;14.20;35.96
25350;BME280;13302;48.796;11.978;2022-09-27T10:32:38;95280.41;;;14.23;36.02
25350;BME280;13302;48.796;11.978;2022-09-27T10:35:58;95278.81;;;14.22;35.98
25350;BME280;13302;48.796;11.978;2022-09-27T10:38:55;95286.72;;;14.24;36.01
25350;BME280;13302;48.796;11.978;2022-09-27T10:41:50;95284.34;;;14.26;36.13
25350;BME280;13302;48.796;11.978;2022-09-27T10:45:29;95295.06;;;14.28;36.28
25350;BME280;13302;48.796;11.978;2022-09-27T10:48:28;95299.00;;;14.30;36.04
25350;BME280;13302;48.796;11.978;2022-09-27T10:51:32;95293.44;;;14.30;35.79
25350;BME280;13302;48.796;11.978;2022-09-27T10:54:25;95301.00;;;14.26;35.62
25350;BME280;13302;48.796;11.978;2022-09-27T10:57:19;95300.97;;;14.30;35.49
25350;BME280;13302;48.796;11.978;2022-09-27T11:00:22;95302.59;;;14.27;35.54
25350;BME280;13302;48.796;11.978;2022-09-27T11:03:14;95323.28;;;14.22;35.58
25350;BME280;13302;48.796;11.978;2022-09-27T11:06:27;95320.09;;;14.24;35.42
25350;BME280;13302;48.796;11.978;2022-09-27T11:12:07;95314.56;;;14.20;34.88
25350;BME280;13302;48.796;11.978;2022-09-27T11:14:59;95313.84;;;14.13;34.97
25350;BME280;13302;48.796;11.978;2022-09-27T11:18:01;95319.38;;;14.16;34.74
25350;BME280;13302;48.796;11.978;2022-09-27T11:20:53;95319.31;;;14.20;34.69
25350;BME280;13302;48.796;11.978;2022-09-27T11:24:06;95326.28;;;13.98;34.85
25350;BME280;13302;48.796;11.978;2022-09-27T11:33:48;95315.44;;;14.10;35.16
25350;BME280;13302;48.796;11.978;2022-09-27T11:58:57;95296.22;;;14.30;35.25
25350;BME280;13302;48.796;11.978;2022-09-27T12:11:49;95296.34;;;14.53;33.92
25350;BME280;13302;48.796;11.978;2022-09-27T12:14:59;95299.06;;;14.60;34.19
25350;BME280;13302;48.796;11.978;2022-09-27T12:18:11;95301.78;;;14.64;34.34
25350;BME280;13302;48.796;11.978;2022-09-27T12:21:02;95297.34;;;14.70;34.43
25350;BME280;13302;48.796;11.978;2022-09-27T12:23:55;95294.94;;;14.72;34.22
25350;BME280;13302;48.796;11.978;2022-09-27T12:27:33;95289.34;;;14.76;33.87
25350;BME280;13302;48.796;11.978;2022-09-27T12:30:22;95292.81;;;14.83;33.43
25350;BME280;13302;48.796;11.978;2022-09-27T12:33:17;95297.28;;;14.77;33.34
25350;BME280;13302;48.796;11.978;2022-09-27T12:36:13;95323.50;;;14.76;33.28
25350;BME280;13302;48.796;11.978;2022-09-27T12:39:18;95316.34;;;14.75;33.35
25350;BME280;13302;48.796;11.978;2022-09-27T12:42:19;95323.28;;;14.60;33.51
25350;BME280;13302;48.796;11.978;2022-09-27T12:45:15;95316.84;;;14.66;33.39
25350;BME280;13302;48.796;11.978;2022-09-27T12:51:09;95309.69;;;14.65;33.90
25350;BME280;13302;48.796;11.978;2022-09-27T12:54:28;95319.22;;;14.68;34.30
25350;BME280;13302;48.796;11.978;2022-09-27T13:13:53;95297.28;;;14.73;33.90
25350;BME280;13302;48.796;11.978;2022-09-27T13:16:43;95294.50;;;14.77;33.39
25350;BME280;13302;48.796;11.978;2022-09-27T13:19:38;95300.78;;;14.81;33.40
25350;BME280;13302;48.796;11.978;2022-09-27T13:22:37;95301.53;;;14.85;33.54
25350;BME280;13302;48.796;11.978;2022-09-27T13:25:55;95302.34;;;14.82;33.30
25350;BME280;13302;48.796;11.978;2022-09-27T13:34:48;95311.81;;;14.92;33.17
25350;BME280;13302;48.796;11.978;2022-09-27T13:37:47;95314.97;;;14.90;33.09
25350;BME280;13302;48.796;11.978;2022-09-27T13:40:42;95311.81;;;14.88;32.99
25350;BME280;13302;48.796;11.978;2022-09-27T13:43:51;95309.44;;;14.87;33.03
25350;BME280;13302;48.796;11.978;2022-09-27T13:47:02;95305.09;;;14.86;32.80
25350;BME280;13302;48.796;11.978;2022-09-27T13:49:53;95289.63;;;14.85;32.86
25350;BME280;13302;48.796;11.978;2022-09-27T13:53:20;95297.97;;;14.85;33.16
25350;BME280;13302;48.796;11.978;2022-09-27T14:05:53;95308.41;;;14.77;32.59
25350;BME280;13302;48.796;11.978;2022-09-27T14:08:47;95302.84;;;14.77;32.50
25350;BME280;13302;48.796;11.978;2022-09-27T14:11:38;95302.09;;;14.73;32.53
25350;BME280;13302;48.796;11.978;2022-09-27T14:14:28;95298.47;;;14.76;32.55
25350;BME280;13302;48.796;11.978;2022-09-27T14:17:17;95300.41;;;14.79;32.73
25350;BME280;13302;48.796;11.978;2022-09-27T14:20:05;95301.56;;;14.82;32.64
25350;BME280;13302;48.796;11.978;2022-09-27T14:22:54;95299.97;;;14.84;32.29
25350;BME280;13302;48.796;11.978;2022-09-27T14:25:50;95309.50;;;14.83;32.76
25350;BME280;13302;48.796;11.978;2022-09-27T14:28:41;95305.53;;;14.84;32.25
25350;BME280;13302;48.796;11.978;2022-09-27T14:31:35;95300.78;;;14.81;32.47
25350;BME280;13302;48.796;11.978;2022-09-27T14:34:39;95301.56;;;14.82;32.19
25350;BME280;13302;48.796;11.978;2022-09-27T14:37:28;95290.81;;;14.84;32.27
25350;BME280;13302;48.796;11.978;2022-09-27T14:40:22;95285.59;;;14.86;32.61
25350;BME280;13302;48.796;11.978;2022-09-27T14:43:17;95293.94;;;14.89;32.61
25350;BME280;13302;48.796;11.978;2022-09-27T14:46:06;95291.94;;;14.93;32.72
25350;BME280;13302;48.796;11.978;2022-09-27T14:48:53;95296.66;;;14.96;32.57
25350;BME280;13302;48.796;11.978;2022-09-27T14:51:41;95301.00;;;14.97;32.64
25350;BME280;13302;48.796;11.978;2022-09-27T14:54:29;95299.78;;;14.98;32.26
25350;BME280;13302;48.796;11.978;2022-09-27T14:57:19;95291.44;;;14.98;32.48
25350;BME280;13302;48.796;11.978;2022-09-27T15:00:29;95295.06;;;14.95;32.03
25350;BME280;13302;48.796;11.978;2022-09-27T15:03:38;95294.28;;;14.95;32.25
25350;BME280;13302;48.796;11.978;2022-09-27T15:06:30;95291.94;;;14.93;32.18
25350;BME280;13302;48.796;11.978;2022-09-27T15:09:18;95278.78;;;14.90;32.00
25350;BME280;13302;48.796;11.978;2022-09-27T15:12:05;95271.28;;;14.87;32.13
25350;BME280;13302;48.796;11.978;2022-09-27T15:14:54;95272.94;;;14.85;31.88
25350;BME280;13302;48.796;11.978;2022-09-27T15:17:44;95257.47;;;14.80;32.28
25350;BME280;13302;48.796;11.978;2022-09-27T15:20:33;95258.31;;;14.77;31.99
25350;BME280;13302;48.796;11.978;2022-09-27T15:23:26;95259.94;;;14.75;32.07
25350;BME280;13302;48.796;11.978;2022-09-27T15:26:22;95250.44;;;14.72;32.01
25350;BME280;13302;48.796;11.978;2022-09-27T15:29:23;95251.28;;;14.69;32.06
25350;BME280;13302;48.796;11.978;2022-09-27T15:32:15;95260.06;;;14.64;32.22
25350;BME280;13302;48.796;11.978;2022-09-27T15:35:07;95294.25;;;14.61;32.25
25350;BME280;13302;48.796;11.978;2022-09-27T15:38:22;95364.66;;;14.54;32.43
25350;BME280;13302;48.796;11.978;2022-09-27T15:41:18;95409.66;;;14.42;33.60
25350;BME280;13302;48.796;11.978;2022-09-27T15:44:34;95400.50;;;14.45;33.19
25350;BME280;13302;48.796;11.978;2022-09-27T15:53:11;95372.50;;;14.25;33.33
25350;BME280;13302;48.796;11.978;2022-09-27T15:56:00;95376.16;;;14.15;33.35
25350;BME280;13302;48.796;11.978;2022-09-27T15:58:47;95386.50;;;14.08;33.91
25350;BME280;13302;48.796;11.978;2022-09-27T16:01:34;95392.16;;;13.97;34.08
25350;BME280;13302;48.796;11.978;2022-09-27T16:04:21;95376.34;;;13.87;34.26
25350;BME280;13302;48.796;11.978;2022-09-27T16:07:09;95381.59;;;13.78;34.41
25350;BME280;13302;48.796;11.978;2022-09-27T16:09:56;95382.84;;;13.70;34.37
25350;BME280;13302;48.796;11.978;2022-09-27T16:12:43;95384.09;;;13.62;34.86
25350;BME280;13302;48.796;11.978;2022-09-27T16:15:31;95377.75;;;13.58;34.69
25350;BME280;13302;48.796;11.978;2022-09-27T16:18:18;95375.41;;;13.53;34.78
25350;BME280;13302;48.796;11.978;2022-09-27T16:21:05;95354.03;;;13.46;35.16
25350;BME280;13302;48.796;11.978;2022-09-27T16:23:52;95362.78;;;13.45;35.11
25350;BME280;13302;48.796;11.978;2022-09-27T16:26:39;95365.56;;;13.41;35.02
25350;BME280;13302;48.796;11.978;2022-09-27T16:29:26;95369.97;;;13.35;35.11
25350;BME280;13302;48.796;11.978;2022-09-27T16:32:13;95362.06;;;13.30;35.41
25350;BME280;13302;48.796;11.978;2022-09-27T16:35:01;95370.00;;;13.24;35.34
25350;BME280;13302;48.796;11.978;2022-09-27T16:37:48;95371.59;;;13.18;35.29
25350;BME280;13302;48.796;11.978;2022-09-27T16:40:36;95376.00;;;13.12;35.49
25350;BME280;13302;48.796;11.978;2022-09-27T16:43:25;95383.53;;;13.05;35.41
25350;BME280;13302;48.796;11.978;2022-09-27T16:46:14;95389.13;;;13.01;35.50
25350;BME280;13302;48.796;11.978;2022-09-27T16:49:04;95387.94;;;12.99;35.85
25350;BME280;13302;48.796;11.978;2022-09-27T16:52:11;95391.09;;;12.97;35.62
25350;BME280;13302;48.796;11.978;2022-09-27T16:54:59;95403.03;;;12.94;35.72
25350;BME280;13302;48.796;11.978;2022-09-27T16:57:47;95407.41;;;12.92;36.16
25350;BME280;13302;48.796;11.978;2022-09-27T17:00:34;95398.66;;;12.89;35.68
25350;BME280;13302;48.796;11.978;2022-09-27T17:03:21;95404.22;;;12.86;35.97
25350;BME280;13302;48.796;11.978;2022-09-27T17:06:08;95411.75;;;12.85;35.87
25350;BME280;13302;48.796;11.978;2022-09-27T17:08:55;95386.81;;;12.82;36.26
25350;BME280;13302;48.796;11.978;2022-09-27T17:11:42;95394.75;;;12.80;36.31
25350;BME280;13302;48.796;11.978;2022-09-27T17:14:29;95400.72;;;12.75;36.33
25350;BME280;13302;48.796;11.978;2022-09-27T17:17:18;95404.66;;;12.74;36.35
25350;BME280;13302;48.796;11.978;2022-09-27T17:20:05;95390.81;;;12.74;36.32
25350;BME280;13302;48.796;11.978;2022-09-27T17:22:52;95381.69;;;12.73;36.51
25350;BME280;13302;48.796;11.978;2022-09-27T17:25:39;95382.47;;;12.74;36.67
25350;BME280;13302;48.796;11.978;2022-09-27T17:28:28;95379.72;;;12.74;36.86
25350;BME280;13302;48.796;11.978;2022-09-27T17:31:17;95379.72;;;12.74;36.74
25350;BME280;13302;48.796;11.978;2022-09-27T17:34:09;95381.69;;;12.73;36.79
25350;BME280;13302;48.796;11.978;2022-09-27T17:36:57;95364.25;;;12.73;36.64
25350;BME280;13302;48.796;11.978;2022-09-27T17:39:46;95373.75;;;12.72;36.99
25350;BME280;13302;48.796;11.978;2022-09-27T17:42:33;95381.72;;;12.70;36.69
25350;BME280;13302;48.796;11.978;2022-09-27T17:45:22;95380.53;;;12.71;37.11